sensor_id;sensor_type;location;lat;lon;timestamp;P1;durP1;ratioP1;P2;durP2;ratioP2
17494;SDS011;8864;51.970;4.614;2024-01-06T00:02:23;1.83;;;1.30;;
17494;SDS011;8864;51.970;4.614;2024-01-06T00:04:49;3.33;;;1.35;;
17494;SDS011;8864;51.970;4.614;2024-01-06T00:07:16;2.65;;;1.00;;
17494;SDS011;8864;51.970;4.614;2024-01-06T00:09:45;2.35;;;0.90;;
17494;SDS011;8864;51.970;4.614;2024-01-06T00:12:12;2.08;;;1.20;;
17494;SDS011;8864;51.970;4.614;2024-01-06T00:14:41;1.50;;;1.00;;
17494;SDS011;8864;51.970;4.614;2024-01-06T00:17:10;1.20;;;0.80;;
17494;SDS011;8864;51.970;4.614;2024-01-06T00:19:37;2.38;;;1.15;;
17494;SDS011;8864;51.970;4.614;2024-01-06T00:22:04;2.63;;;1.00;;
17494;SDS011;8864;51.970;4.614;2024-01-06T00:24:31;1.17;;;0.90;;
17494;SDS011;8864;51.970;4.614;2024-01-06T00:26:58;1.58;;;0.98;;
17494;SDS011;8864;51.970;4.614;2024-01-06T00:29:25;1.38;;;0.90;;
17494;SDS011;8864;51.970;4.614;2024-01-06T00:31:53;1.10;;;0.80;;
17494;SDS011;8864;51.970;4.614;2024-01-06T00:34:20;1.50;;;0.90;;
17494;SDS011;8864;51.970;4.614;2024-01-06T00:36:47;1.30;;;0.80;;
17494;SDS011;8864;51.970;4.614;2024-01-06T00:39:14;1.42;;;0.90;;
17494;SDS011;8864;51.970;4.614;2024-01-06T00:41:41;1.42;;;0.88;;
17494;SDS011;8864;51.970;4.614;2024-01-06T00:44:08;1.20;;;1.08;;
17494;SDS011;8864;51.970;4.614;2024-01-06T00:46:36;1.63;;;1.00;;
17494;SDS011;8864;51.970;4.614;2024-01-06T00:49:06;2.10;;;1.17;;
17494;SDS011;8864;51.970;4.614;2024-01-06T00:51:34;1.85;;;0.98;;
17494;SDS011;8864;51.970;4.614;2024-01-06T00:54:01;4.40;;;1.30;;
17494;SDS011;8864;51.970;4.614;2024-01-06T00:56:29;3.65;;;0.98;;
17494;SDS011;8864;51.970;4.614;2024-01-06T00:58:56;1.00;;;0.80;;
17494;SDS011;8864;51.970;4.614;2024-01-06T01:01:23;2.05;;;1.00;;
17494;SDS011;8864;51.970;4.614;2024-01-06T01:03:51;1.10;;;1.00;;
17494;SDS011;8864;51.970;4.614;2024-01-06T01:06:20;3.10;;;0.95;;
17494;SDS011;8864;51.970;4.614;2024-01-06T01:08:48;1.90;;;0.90;;
17494;SDS011;8864;51.970;4.614;2024-01-06T01:11:14;2.25;;;0.88;;
17494;SDS011;8864;51.970;4.614;2024-01-06T01:13:42;1.10;;;0.88;;
17494;SDS011;8864;51.970;4.614;2024-01-06T01:16:09;1.58;;;0.98;;
17494;SDS011;8864;51.970;4.614;2024-01-06T01:18:35;1.27;;;0.80;;
17494;SDS011;8864;51.970;4.614;2024-01-06T01:21:04;3.15;;;0.80;;
17494;SDS011;8864;51.970;4.614;2024-01-06T01:23:33;2.03;;;0.90;;
17494;SDS011;8864;51.970;4.614;2024-01-06T01:26:00;1.33;;;0.82;;
17494;SDS011;8864;51.970;4.614;2024-01-06T01:28:27;1.15;;;0.70;;
17494;SDS011;8864;51.970;4.614;2024-01-06T01:30:54;2.45;;;0.80;;
17494;SDS011;8864;51.970;4.614;2024-01-06T01:33:21;0.70;;;0.60;;
17494;SDS011;8864;51.970;4.614;2024-01-06T01:35:49;1.02;;;0.70;;
17494;SDS011;8864;51.970;4.614;2024-01-06T01:38:16;3.38;;;0.90;;
17494;SDS011;8864;51.970;4.614;2024-01-06T01:40:44;2.72;;;0.60;;
17494;SDS011;8864;51.970;4.614;2024-01-06T01:43:17;0.70;;;0.70;;
17494;SDS011;8864;51.970;4.614;2024-01-06T01:45:45;1.50;;;0.60;;
17494;SDS011;8864;51.970;4.614;2024-01-06T01:48:19;1.27;;;0.60;;
17494;SDS011;8864;51.970;4.614;2024-01-06T01:50:47;1.15;;;0.60;;
17494;SDS011;8864;51.970;4.614;2024-01-06T01:53:14;2.20;;;0.60;;
17494;SDS011;8864;51.970;4.614;2024-01-06T01:55:41;0.88;;;0.68;;
17494;SDS011;8864;51.970;4.614;2024-01-06T01:58:11;1.98;;;0.93;;
17494;SDS011;8864;51.970;4.614;2024-01-06T02:00:40;1.35;;;0.60;;
17494;SDS011;8864;51.970;4.614;2024-01-06T02:03:07;0.88;;;0.50;;
17494;SDS011;8864;51.970;4.614;2024-01-06T02:05:35;1.05;;;0.60;;
17494;SDS011;8864;51.970;4.614;2024-01-06T02:08:03;1.85;;;0.55;;
17494;SDS011;8864;51.970;4.614;2024-01-06T02:10:30;1.48;;;0.60;;
17494;SDS011;8864;51.970;4.614;2024-01-06T02:13:06;2.30;;;0.50;;
17494;SDS011;8864;51.970;4.614;2024-01-06T02:15:37;2.15;;;0.80;;
17494;SDS011;8864;51.970;4.614;2024-01-06T02:18:05;1.48;;;0.50;;
17494;SDS011;8864;51.970;4.614;2024-01-06T02:20:33;1.17;;;0.50;;
17494;SDS011;8864;51.970;4.614;2024-01-06T02:23:01;1.50;;;0.80;;
17494;SDS011;8864;51.970;4.614;2024-01-06T02:25:29;1.10;;;0.60;;
17494;SDS011;8864;51.970;4.614;2024-01-06T02:27:57;0.60;;;0.50;;
17494;SDS011;8864;51.970;4.614;2024-01-06T02:30:24;1.60;;;0.43;;
17494;SDS011;8864;51.970;4.614;2024-01-06T02:32:50;1.38;;;0.60;;
17494;SDS011;8864;51.970;4.614;2024-01-06T02:35:17;0.50;;;0.50;;
17494;SDS011;8864;51.970;4.614;2024-01-06T02:37:47;1.73;;;0.60;;
17494;SDS011;8864;51.970;4.614;2024-01-06T02:40:15;1.60;;;0.77;;
17494;SDS011;8864;51.970;4.614;2024-01-06T02:42:42;1.55;;;0.68;;
17494;SDS011;8864;51.970;4.614;2024-01-06T02:45:09;0.55;;;0.35;;
17494;SDS011;8864;51.970;4.614;2024-01-06T02:47:36;0.77;;;0.50;;
17494;SDS011;8864;51.970;4.614;2024-01-06T02:50:04;0.52;;;0.32;;
17494;SDS011;8864;51.970;4.614;2024-01-06T02:52:31;1.20;;;0.40;;
17494;SDS011;8864;51.970;4.614;2024-01-06T02:54:58;1.67;;;0.68;;
17494;SDS011;8864;51.970;4.614;2024-01-06T02:57:27;0.75;;;0.40;;
17494;SDS011;8864;51.970;4.614;2024-01-06T02:59:55;0.60;;;0.50;;
17494;SDS011;8864;51.970;4.614;2024-01-06T03:02:22;1.10;;;0.55;;
17494;SDS011;8864;51.970;4.614;2024-01-06T03:04:49;5.30;;;0.65;;
17494;SDS011;8864;51.970;4.614;2024-01-06T03:07:16;1.10;;;0.50;;
17494;SDS011;8864;51.970;4.614;2024-01-06T03:09:43;0.80;;;0.50;;
17494;SDS011;8864;51.970;4.614;2024-01-06T03:12:10;1.88;;;0.68;;
17494;SDS011;8864;51.970;4.614;2024-01-06T03:14:40;1.00;;;0.50;;
17494;SDS011;8864;51.970;4.614;2024-01-06T03:17:06;1.60;;;0.50;;
17494;SDS011;8864;51.970;4.614;2024-01-06T03:19:35;1.88;;;0.52;;
17494;SDS011;8864;51.970;4.614;2024-01-06T03:22:02;1.13;;;0.60;;
17494;SDS011;8864;51.970;4.614;2024-01-06T03:24:30;1.20;;;0.55;;
17494;SDS011;8864;51.970;4.614;2024-01-06T03:26:59;0.93;;;0.50;;
17494;SDS011;8864;51.970;4.614;2024-01-06T03:29:26;1.88;;;0.63;;
17494;SDS011;8864;51.970;4.614;2024-01-06T03:31:54;1.23;;;0.52;;
17494;SDS011;8864;51.970;4.614;2024-01-06T03:34:22;0.98;;;0.70;;
17494;SDS011;8864;51.970;4.614;2024-01-06T03:36:49;0.75;;;0.60;;
17494;SDS011;8864;51.970;4.614;2024-01-06T03:39:17;2.15;;;0.70;;
17494;SDS011;8864;51.970;4.614;2024-01-06T03:41:45;1.27;;;0.52;;
17494;SDS011;8864;51.970;4.614;2024-01-06T03:44:11;1.38;;;0.70;;
17494;SDS011;8864;51.970;4.614;2024-01-06T03:46:38;1.73;;;0.75;;
17494;SDS011;8864;51.970;4.614;2024-01-06T03:49:07;1.23;;;0.50;;
17494;SDS011;8864;51.970;4.614;2024-01-06T03:51:34;1.50;;;0.68;;
17494;SDS011;8864;51.970;4.614;2024-01-06T03:54:00;1.33;;;0.60;;
17494;SDS011;8864;51.970;4.614;2024-01-06T03:56:29;1.20;;;0.70;;
17494;SDS011;8864;51.970;4.614;2024-01-06T03:58:56;1.90;;;0.68;;
17494;SDS011;8864;51.970;4.614;2024-01-06T04:01:23;1.60;;;0.68;;
17494;SDS011;8864;51.970;4.614;2024-01-06T04:03:51;0.90;;;0.60;;
17494;SDS011;8864;51.970;4.614;2024-01-06T04:06:21;0.65;;;0.50;;
17494;SDS011;8864;51.970;4.614;2024-01-06T04:08:48;0.90;;;0.63;;
17494;SDS011;8864;51.970;4.614;2024-01-06T04:11:15;0.80;;;0.63;;
17494;SDS011;8864;51.970;4.614;2024-01-06T04:13:44;1.15;;;0.55;;
17494;SDS011;8864;51.970;4.614;2024-01-06T04:16:11;1.98;;;0.70;;
17494;SDS011;8864;51.970;4.614;2024-01-06T04:18:38;0.90;;;0.60;;
17494;SDS011;8864;51.970;4.614;2024-01-06T04:21:05;1.67;;;0.65;;
17494;SDS011;8864;51.970;4.614;2024-01-06T04:23:35;1.15;;;0.70;;
17494;SDS011;8864;51.970;4.614;2024-01-06T04:26:03;1.80;;;0.80;;
17494;SDS011;8864;51.970;4.614;2024-01-06T04:28:30;1.30;;;0.65;;
17494;SDS011;8864;51.970;4.614;2024-01-06T04:30:57;1.52;;;0.70;;
17494;SDS011;8864;51.970;4.614;2024-01-06T04:33:24;3.53;;;1.15;;
17494;SDS011;8864;51.970;4.614;2024-01-06T04:35:51;1.10;;;0.70;;
17494;SDS011;8864;51.970;4.614;2024-01-06T04:38:18;1.40;;;0.80;;
17494;SDS011;8864;51.970;4.614;2024-01-06T04:40:47;3.22;;;0.80;;
17494;SDS011;8864;51.970;4.614;2024-01-06T04:43:14;1.67;;;0.80;;
17494;SDS011;8864;51.970;4.614;2024-01-06T04:45:41;2.65;;;0.63;;
17494;SDS011;8864;51.970;4.614;2024-01-06T04:48:08;1.10;;;0.80;;
17494;SDS011;8864;51.970;4.614;2024-01-06T04:50:34;2.80;;;0.80;;
17494;SDS011;8864;51.970;4.614;2024-01-06T04:53:03;2.05;;;0.90;;
17494;SDS011;8864;51.970;4.614;2024-01-06T04:55:30;1.08;;;0.65;;
17494;SDS011;8864;51.970;4.614;2024-01-06T04:57:58;2.20;;;0.90;;
17494;SDS011;8864;51.970;4.614;2024-01-06T05:00:25;1.52;;;0.70;;
17494;SDS011;8864;51.970;4.614;2024-01-06T05:02:52;1.85;;;0.90;;
17494;SDS011;8864;51.970;4.614;2024-01-06T05:05:19;1.45;;;0.85;;
17494;SDS011;8864;51.970;4.614;2024-01-06T05:07:46;1.50;;;0.80;;
17494;SDS011;8864;51.970;4.614;2024-01-06T05:10:13;1.73;;;0.80;;
17494;SDS011;8864;51.970;4.614;2024-01-06T05:12:41;1.08;;;0.70;;
17494;SDS011;8864;51.970;4.614;2024-01-06T05:15:10;2.05;;;0.80;;
17494;SDS011;8864;51.970;4.614;2024-01-06T05:17:38;4.10;;;0.80;;
17494;SDS011;8864;51.970;4.614;2024-01-06T05:20:05;2.80;;;1.00;;
17494;SDS011;8864;51.970;4.614;2024-01-06T05:22:34;3.08;;;0.90;;
17494;SDS011;8864;51.970;4.614;2024-01-06T05:25:00;2.10;;;1.00;;
17494;SDS011;8864;51.970;4.614;2024-01-06T05:27:29;2.75;;;0.90;;
17494;SDS011;8864;51.970;4.614;2024-01-06T05:29:56;2.22;;;0.98;;
17494;SDS011;8864;51.970;4.614;2024-01-06T05:32:24;2.53;;;0.60;;
17494;SDS011;8864;51.970;4.614;2024-01-06T05:34:51;2.58;;;0.80;;
17494;SDS011;8864;51.970;4.614;2024-01-06T05:37:18;0.95;;;0.70;;
17494;SDS011;8864;51.970;4.614;2024-01-06T05:39:45;1.10;;;0.80;;
17494;SDS011;8864;51.970;4.614;2024-01-06T05:42:12;0.85;;;0.63;;
17494;SDS011;8864;51.970;4.614;2024-01-06T05:44:39;1.33;;;0.70;;
17494;SDS011;8864;51.970;4.614;2024-01-06T05:47:07;1.45;;;0.80;;
17494;SDS011;8864;51.970;4.614;2024-01-06T05:49:36;2.60;;;0.80;;
17494;SDS011;8864;51.970;4.614;2024-01-06T05:52:07;3.25;;;0.80;;
17494;SDS011;8864;51.970;4.614;2024-01-06T05:54:34;1.80;;;0.65;;
17494;SDS011;8864;51.970;4.614;2024-01-06T05:57:01;4.53;;;0.80;;
17494;SDS011;8864;51.970;4.614;2024-01-06T05:59:28;2.78;;;0.73;;
17494;SDS011;8864;51.970;4.614;2024-01-06T06:01:54;0.50;;;0.47;;
17494;SDS011;8864;51.970;4.614;2024-01-06T06:04:22;2.13;;;1.13;;
17494;SDS011;8864;51.970;4.614;2024-01-06T06:06:50;2.38;;;0.90;;
17494;SDS011;8864;51.970;4.614;2024-01-06T06:09:17;2.45;;;0.82;;
17494;SDS011;8864;51.970;4.614;2024-01-06T06:11:45;1.65;;;0.80;;
17494;SDS011;8864;51.970;4.614;2024-01-06T06:14:13;0.95;;;0.80;;
17494;SDS011;8864;51.970;4.614;2024-01-06T06:16:40;0.60;;;0.60;;
17494;SDS011;8864;51.970;4.614;2024-01-06T06:19:07;1.65;;;0.60;;
17494;SDS011;8864;51.970;4.614;2024-01-06T06:21:34;5.47;;;0.80;;
17494;SDS011;8864;51.970;4.614;2024-01-06T06:24:02;2.03;;;0.85;;
17494;SDS011;8864;51.970;4.614;2024-01-06T06:26:31;1.55;;;0.63;;
17494;SDS011;8864;51.970;4.614;2024-01-06T06:28:59;0.85;;;0.70;;
17494;SDS011;8864;51.970;4.614;2024-01-06T06:31:26;3.17;;;0.95;;
17494;SDS011;8864;51.970;4.614;2024-01-06T06:33:53;1.20;;;0.85;;
17494;SDS011;8864;51.970;4.614;2024-01-06T06:36:20;2.95;;;0.95;;
17494;SDS011;8864;51.970;4.614;2024-01-06T06:38:47;4.40;;;0.90;;
17494;SDS011;8864;51.970;4.614;2024-01-06T06:41:15;1.50;;;0.65;;
17494;SDS011;8864;51.970;4.614;2024-01-06T06:43:42;1.85;;;0.70;;
17494;SDS011;8864;51.970;4.614;2024-01-06T06:46:09;5.55;;;1.20;;
17494;SDS011;8864;51.970;4.614;2024-01-06T06:48:36;1.65;;;0.70;;
17494;SDS011;8864;51.970;4.614;2024-01-06T06:51:03;1.10;;;0.70;;
17494;SDS011;8864;51.970;4.614;2024-01-06T06:53:30;1.30;;;0.80;;
17494;SDS011;8864;51.970;4.614;2024-01-06T06:55:57;1.00;;;0.60;;
17494;SDS011;8864;51.970;4.614;2024-01-06T06:58:28;1.92;;;0.88;;
17494;SDS011;8864;51.970;4.614;2024-01-06T07:00:55;2.30;;;1.00;;
17494;SDS011;8864;51.970;4.614;2024-01-06T07:03:21;1.27;;;0.68;;
17494;SDS011;8864;51.970;4.614;2024-01-06T07:05:48;3.22;;;1.05;;
17494;SDS011;8864;51.970;4.614;2024-01-06T07:08:15;0.93;;;0.60;;
17494;SDS011;8864;51.970;4.614;2024-01-06T07:10:43;2.15;;;0.75;;
17494;SDS011;8864;51.970;4.614;2024-01-06T07:13:10;1.52;;;0.80;;
17494;SDS011;8864;51.970;4.614;2024-01-06T07:15:39;1.50;;;0.60;;
17494;SDS011;8864;51.970;4.614;2024-01-06T07:18:06;1.40;;;0.70;;
17494;SDS011;8864;51.970;4.614;2024-01-06T07:20:34;4.00;;;1.10;;
17494;SDS011;8864;51.970;4.614;2024-01-06T07:23:01;0.95;;;0.82;;
17494;SDS011;8864;51.970;4.614;2024-01-06T07:25:28;2.22;;;0.73;;
17494;SDS011;8864;51.970;4.614;2024-01-06T07:27:56;1.40;;;0.70;;
17494;SDS011;8864;51.970;4.614;2024-01-06T07:30:24;4.60;;;0.70;;
17494;SDS011;8864;51.970;4.614;2024-01-06T07:32:52;1.00;;;0.82;;
17494;SDS011;8864;51.970;4.614;2024-01-06T07:35:19;1.13;;;0.70;;
17494;SDS011;8864;51.970;4.614;2024-01-06T07:37:46;1.15;;;0.70;;
17494;SDS011;8864;51.970;4.614;2024-01-06T07:40:13;2.85;;;0.80;;
17494;SDS011;8864;51.970;4.614;2024-01-06T07:42:41;1.60;;;0.70;;
17494;SDS011;8864;51.970;4.614;2024-01-06T07:45:08;0.88;;;0.70;;
17494;SDS011;8864;51.970;4.614;2024-01-06T07:47:36;1.50;;;0.70;;
17494;SDS011;8864;51.970;4.614;2024-01-06T07:50:05;2.55;;;0.80;;
17494;SDS011;8864;51.970;4.614;2024-01-06T07:52:33;1.30;;;0.77;;
17494;SDS011;8864;51.970;4.614;2024-01-06T07:55:00;1.40;;;0.65;;
17494;SDS011;8864;51.970;4.614;2024-01-06T07:57:28;0.90;;;0.70;;
17494;SDS011;8864;51.970;4.614;2024-01-06T07:59:56;2.55;;;0.73;;
17494;SDS011;8864;51.970;4.614;2024-01-06T08:02:24;1.52;;;0.90;;
17494;SDS011;8864;51.970;4.614;2024-01-06T08:04:51;1.08;;;0.70;;
17494;SDS011;8864;51.970;4.614;2024-01-06T08:07:20;1.88;;;0.65;;
17494;SDS011;8864;51.970;4.614;2024-01-06T08:09:47;2.35;;;0.85;;
17494;SDS011;8864;51.970;4.614;2024-01-06T08:12:15;1.80;;;0.60;;
17494;SDS011;8864;51.970;4.614;2024-01-06T08:14:42;1.05;;;0.60;;
17494;SDS011;8864;51.970;4.614;2024-01-06T08:17:09;1.85;;;0.90;;
17494;SDS011;8864;51.970;4.614;2024-01-06T08:19:36;2.95;;;0.80;;
17494;SDS011;8864;51.970;4.614;2024-01-06T08:22:03;42.03;;;7.10;;
17494;SDS011;8864;51.970;4.614;2024-01-06T08:24:31;22.33;;;3.97;;
17494;SDS011;8864;51.970;4.614;2024-01-06T08:26:58;33.78;;;4.90;;
17494;SDS011;8864;51.970;4.614;2024-01-06T08:29:25;24.08;;;5.35;;
17494;SDS011;8864;51.970;4.614;2024-01-06T08:31:52;19.65;;;3.90;;
17494;SDS011;8864;51.970;4.614;2024-01-06T08:34:20;22.95;;;3.67;;
17494;SDS011;8864;51.970;4.614;2024-01-06T08:36:49;19.65;;;3.30;;
17494;SDS011;8864;51.970;4.614;2024-01-06T08:39:16;11.48;;;2.90;;
17494;SDS011;8864;51.970;4.614;2024-01-06T08:41:44;17.33;;;3.28;;
17494;SDS011;8864;51.970;4.614;2024-01-06T08:44:12;12.55;;;2.75;;
17494;SDS011;8864;51.970;4.614;2024-01-06T08:46:38;10.65;;;2.70;;
17494;SDS011;8864;51.970;4.614;2024-01-06T08:49:07;15.15;;;2.60;;
17494;SDS011;8864;51.970;4.614;2024-01-06T08:51:34;8.77;;;2.53;;
17494;SDS011;8864;51.970;4.614;2024-01-06T08:54:01;15.07;;;2.53;;
17494;SDS011;8864;51.970;4.614;2024-01-06T08:56:30;8.85;;;2.40;;
17494;SDS011;8864;51.970;4.614;2024-01-06T08:58:59;10.05;;;2.33;;
17494;SDS011;8864;51.970;4.614;2024-01-06T09:01:26;8.32;;;2.10;;
17494;SDS011;8864;51.970;4.614;2024-01-06T09:03:52;7.00;;;1.70;;
17494;SDS011;8864;51.970;4.614;2024-01-06T09:06:20;6.10;;;2.10;;
17494;SDS011;8864;51.970;4.614;2024-01-06T09:08:48;15.30;;;2.85;;
17494;SDS011;8864;51.970;4.614;2024-01-06T09:11:15;8.50;;;1.77;;
17494;SDS011;8864;51.970;4.614;2024-01-06T09:13:42;7.10;;;1.73;;
17494;SDS011;8864;51.970;4.614;2024-01-06T09:16:10;6.72;;;1.40;;
17494;SDS011;8864;51.970;4.614;2024-01-06T09:18:37;8.05;;;1.70;;
17494;SDS011;8864;51.970;4.614;2024-01-06T09:21:04;6.07;;;1.75;;
17494;SDS011;8864;51.970;4.614;2024-01-06T09:23:32;8.85;;;1.73;;
17494;SDS011;8864;51.970;4.614;2024-01-06T09:25:59;7.07;;;1.77;;
17494;SDS011;8864;51.970;4.614;2024-01-06T09:28:26;3.50;;;1.50;;
17494;SDS011;8864;51.970;4.614;2024-01-06T09:30:53;3.42;;;1.05;;
17494;SDS011;8864;51.970;4.614;2024-01-06T09:33:22;5.65;;;1.48;;
17494;SDS011;8864;51.970;4.614;2024-01-06T09:35:49;4.18;;;1.40;;
17494;SDS011;8864;51.970;4.614;2024-01-06T09:38:16;3.35;;;1.67;;
17494;SDS011;8864;51.970;4.614;2024-01-06T09:40:44;4.32;;;1.15;;
17494;SDS011;8864;51.970;4.614;2024-01-06T09:43:12;2.53;;;1.10;;
17494;SDS011;8864;51.970;4.614;2024-01-06T09:45:39;3.20;;;0.90;;
17494;SDS011;8864;51.970;4.614;2024-01-06T09:48:08;4.72;;;1.05;;
17494;SDS011;8864;51.970;4.614;2024-01-06T09:50:40;3.17;;;1.15;;
17494;SDS011;8864;51.970;4.614;2024-01-06T09:53:08;3.78;;;1.00;;
17494;SDS011;8864;51.970;4.614;2024-01-06T09:55:36;1.25;;;0.73;;
17494;SDS011;8864;51.970;4.614;2024-01-06T09:58:04;3.03;;;1.17;;
17494;SDS011;8864;51.970;4.614;2024-01-06T10:00:31;4.90;;;0.90;;
17494;SDS011;8864;51.970;4.614;2024-01-06T10:02:58;2.50;;;0.90;;
17494;SDS011;8864;51.970;4.614;2024-01-06T10:05:25;2.70;;;1.02;;
17494;SDS011;8864;51.970;4.614;2024-01-06T10:07:54;2.22;;;0.95;;
17494;SDS011;8864;51.970;4.614;2024-01-06T10:10:22;1.17;;;0.80;;
17494;SDS011;8864;51.970;4.614;2024-01-06T10:12:52;2.05;;;0.77;;
17494;SDS011;8864;51.970;4.614;2024-01-06T10:15:20;2.95;;;1.00;;
17494;SDS011;8864;51.970;4.614;2024-01-06T10:17:48;1.95;;;0.85;;
17494;SDS011;8864;51.970;4.614;2024-01-06T10:20:16;3.15;;;0.93;;
17494;SDS011;8864;51.970;4.614;2024-01-06T10:22:45;2.20;;;1.00;;
17494;SDS011;8864;51.970;4.614;2024-01-06T10:25:13;2.05;;;1.00;;
17494;SDS011;8864;51.970;4.614;2024-01-06T10:27:41;2.17;;;0.98;;
17494;SDS011;8864;51.970;4.614;2024-01-06T10:30:08;2.63;;;0.90;;
17494;SDS011;8864;51.970;4.614;2024-01-06T10:32:38;1.75;;;0.82;;
17494;SDS011;8864;51.970;4.614;2024-01-06T10:35:06;1.67;;;0.90;;
17494;SDS011;8864;51.970;4.614;2024-01-06T10:37:34;1.75;;;0.73;;
17494;SDS011;8864;51.970;4.614;2024-01-06T10:40:08;1.75;;;0.70;;
17494;SDS011;8864;51.970;4.614;2024-01-06T10:42:37;1.92;;;0.95;;
17494;SDS011;8864;51.970;4.614;2024-01-06T10:45:07;1.63;;;0.80;;
17494;SDS011;8864;51.970;4.614;2024-01-06T10:47:35;1.92;;;0.88;;
17494;SDS011;8864;51.970;4.614;2024-01-06T10:50:03;1.85;;;0.70;;
17494;SDS011;8864;51.970;4.614;2024-01-06T10:52:31;2.15;;;0.75;;
17494;SDS011;8864;51.970;4.614;2024-01-06T10:54:58;1.80;;;0.80;;
17494;SDS011;8864;51.970;4.614;2024-01-06T10:57:25;1.60;;;0.80;;
17494;SDS011;8864;51.970;4.614;2024-01-06T10:59:58;2.10;;;0.70;;
17494;SDS011;8864;51.970;4.614;2024-01-06T11:02:26;1.67;;;0.80;;
17494;SDS011;8864;51.970;4.614;2024-01-06T11:04:55;2.17;;;0.70;;
17494;SDS011;8864;51.970;4.614;2024-01-06T11:07:22;1.88;;;0.80;;
17494;SDS011;8864;51.970;4.614;2024-01-06T11:09:52;0.80;;;0.65;;
17494;SDS011;8864;51.970;4.614;2024-01-06T11:12:23;1.27;;;0.60;;
17494;SDS011;8864;51.970;4.614;2024-01-06T11:14:52;1.25;;;0.60;;
17494;SDS011;8864;51.970;4.614;2024-01-06T11:20:21;0.80;;;0.70;;
17494;SDS011;8864;51.970;4.614;2024-01-06T11:22:50;2.05;;;0.93;;
17494;SDS011;8864;51.970;4.614;2024-01-06T11:25:18;0.63;;;0.60;;
17494;SDS011;8864;51.970;4.614;2024-01-06T11:27:46;1.63;;;0.88;;
17494;SDS011;8864;51.970;4.614;2024-01-06T11:30:21;1.20;;;0.65;;
17494;SDS011;8864;51.970;4.614;2024-01-06T11:32:50;0.80;;;0.50;;
17494;SDS011;8864;51.970;4.614;2024-01-06T11:35:20;1.80;;;0.70;;
17494;SDS011;8864;51.970;4.614;2024-01-06T11:37:53;0.88;;;0.70;;
17494;SDS011;8864;51.970;4.614;2024-01-06T11:40:23;1.70;;;0.60;;
17494;SDS011;8864;51.970;4.614;2024-01-06T11:42:58;1.15;;;0.63;;
17494;SDS011;8864;51.970;4.614;2024-01-06T11:45:27;1.00;;;0.68;;
17494;SDS011;8864;51.970;4.614;2024-01-06T11:47:55;0.95;;;0.70;;
17494;SDS011;8864;51.970;4.614;2024-01-06T11:50:25;0.70;;;0.70;;
17494;SDS011;8864;51.970;4.614;2024-01-06T11:52:53;1.75;;;0.68;;
17494;SDS011;8864;51.970;4.614;2024-01-06T11:55:20;0.70;;;0.57;;
17494;SDS011;8864;51.970;4.614;2024-01-06T11:57:47;1.63;;;0.70;;
17494;SDS011;8864;51.970;4.614;2024-01-06T12:00:15;0.52;;;0.50;;
17494;SDS011;8864;51.970;4.614;2024-01-06T12:02:43;0.88;;;0.70;;
17494;SDS011;8864;51.970;4.614;2024-01-06T12:05:13;0.60;;;0.50;;
17494;SDS011;8864;51.970;4.614;2024-01-06T12:07:42;1.70;;;0.80;;
17494;SDS011;8864;51.970;4.614;2024-01-06T12:10:10;0.60;;;0.60;;
17494;SDS011;8864;51.970;4.614;2024-01-06T12:12:39;1.45;;;0.60;;
17494;SDS011;8864;51.970;4.614;2024-01-06T12:15:06;1.60;;;0.75;;
17494;SDS011;8864;51.970;4.614;2024-01-06T12:17:35;0.70;;;0.60;;
17494;SDS011;8864;51.970;4.614;2024-01-06T12:20:07;1.95;;;0.80;;
17494;SDS011;8864;51.970;4.614;2024-01-06T12:22:35;2.72;;;0.68;;
17494;SDS011;8864;51.970;4.614;2024-01-06T12:25:04;0.70;;;0.50;;
17494;SDS011;8864;51.970;4.614;2024-01-06T12:27:32;1.15;;;0.70;;
17494;SDS011;8864;51.970;4.614;2024-01-06T12:30:01;1.10;;;0.60;;
17494;SDS011;8864;51.970;4.614;2024-01-06T12:32:28;2.80;;;0.75;;
17494;SDS011;8864;51.970;4.614;2024-01-06T12:34:55;1.25;;;0.65;;
17494;SDS011;8864;51.970;4.614;2024-01-06T12:37:22;2.22;;;0.90;;
17494;SDS011;8864;51.970;4.614;2024-01-06T12:39:49;0.75;;;0.60;;
17494;SDS011;8864;51.970;4.614;2024-01-06T12:42:19;3.13;;;0.70;;
17494;SDS011;8864;51.970;4.614;2024-01-06T12:44:48;0.98;;;0.52;;
17494;SDS011;8864;51.970;4.614;2024-01-06T12:47:15;3.13;;;0.60;;
17494;SDS011;8864;51.970;4.614;2024-01-06T12:49:43;1.05;;;0.70;;
17494;SDS011;8864;51.970;4.614;2024-01-06T12:52:11;2.88;;;0.90;;
17494;SDS011;8864;51.970;4.614;2024-01-06T12:54:38;6.00;;;1.08;;
17494;SDS011;8864;51.970;4.614;2024-01-06T12:57:07;0.70;;;0.60;;
17494;SDS011;8864;51.970;4.614;2024-01-06T12:59:36;0.88;;;0.77;;
17494;SDS011;8864;51.970;4.614;2024-01-06T13:02:03;3.33;;;0.60;;
17494;SDS011;8864;51.970;4.614;2024-01-06T13:04:30;1.15;;;0.80;;
17494;SDS011;8864;51.970;4.614;2024-01-06T13:06:57;4.30;;;0.65;;
17494;SDS011;8864;51.970;4.614;2024-01-06T13:09:24;1.70;;;0.70;;
17494;SDS011;8864;51.970;4.614;2024-01-06T13:11:51;1.73;;;0.85;;
17494;SDS011;8864;51.970;4.614;2024-01-06T13:14:20;1.95;;;0.68;;
17494;SDS011;8864;51.970;4.614;2024-01-06T13:16:49;0.70;;;0.70;;
17494;SDS011;8864;51.970;4.614;2024-01-06T13:19:16;1.20;;;0.75;;
17494;SDS011;8864;51.970;4.614;2024-01-06T13:21:44;2.15;;;0.70;;
17494;SDS011;8864;51.970;4.614;2024-01-06T13:24:12;2.10;;;1.10;;
17494;SDS011;8864;51.970;4.614;2024-01-06T13:26:39;3.72;;;1.15;;
17494;SDS011;8864;51.970;4.614;2024-01-06T13:29:06;2.75;;;1.40;;
17494;SDS011;8864;51.970;4.614;2024-01-06T13:31:33;2.13;;;1.40;;
17494;SDS011;8864;51.970;4.614;2024-01-06T13:34:01;3.78;;;1.50;;
17494;SDS011;8864;51.970;4.614;2024-01-06T13:36:29;4.50;;;2.03;;
17494;SDS011;8864;51.970;4.614;2024-01-06T13:38:56;6.20;;;2.00;;
17494;SDS011;8864;51.970;4.614;2024-01-06T13:41:25;4.47;;;2.10;;
17494;SDS011;8864;51.970;4.614;2024-01-06T13:43:53;6.55;;;2.33;;
17494;SDS011;8864;51.970;4.614;2024-01-06T13:46:19;6.20;;;2.50;;
17494;SDS011;8864;51.970;4.614;2024-01-06T13:48:46;4.22;;;2.30;;
17494;SDS011;8864;51.970;4.614;2024-01-06T13:51:16;5.75;;;2.47;;
17494;SDS011;8864;51.970;4.614;2024-01-06T13:53:43;4.82;;;2.28;;
17494;SDS011;8864;51.970;4.614;2024-01-06T13:56:10;5.32;;;2.42;;
17494;SDS011;8864;51.970;4.614;2024-01-06T13:58:38;3.88;;;1.90;;
17494;SDS011;8864;51.970;4.614;2024-01-06T14:01:05;5.00;;;2.33;;
17494;SDS011;8864;51.970;4.614;2024-01-06T14:03:36;3.90;;;1.97;;
17494;SDS011;8864;51.970;4.614;2024-01-06T14:06:04;3.92;;;1.83;;
17494;SDS011;8864;51.970;4.614;2024-01-06T14:08:34;4.85;;;1.90;;
17494;SDS011;8864;51.970;4.614;2024-01-06T14:11:01;5.35;;;1.70;;
17494;SDS011;8864;51.970;4.614;2024-01-06T14:13:28;3.35;;;1.63;;
17494;SDS011;8864;51.970;4.614;2024-01-06T14:15:55;3.45;;;1.70;;
17494;SDS011;8864;51.970;4.614;2024-01-06T14:18:23;8.07;;;1.60;;
17494;SDS011;8864;51.970;4.614;2024-01-06T14:20:50;4.60;;;1.40;;
17494;SDS011;8864;51.970;4.614;2024-01-06T14:23:17;4.15;;;1.55;;
17494;SDS011;8864;51.970;4.614;2024-01-06T14:25:46;2.72;;;1.33;;
17494;SDS011;8864;51.970;4.614;2024-01-06T14:28:14;5.20;;;1.40;;
17494;SDS011;8864;51.970;4.614;2024-01-06T14:30:41;2.97;;;1.50;;
17494;SDS011;8864;51.970;4.614;2024-01-06T14:33:08;3.22;;;1.20;;
17494;SDS011;8864;51.970;4.614;2024-01-06T14:35:35;1.83;;;1.10;;
17494;SDS011;8864;51.970;4.614;2024-01-06T14:38:02;1.38;;;0.95;;
17494;SDS011;8864;51.970;4.614;2024-01-06T14:40:30;2.72;;;1.00;;
17494;SDS011;8864;51.970;4.614;2024-01-06T14:43:00;2.15;;;1.17;;
17494;SDS011;8864;51.970;4.614;2024-01-06T14:45:27;1.58;;;0.90;;
17494;SDS011;8864;51.970;4.614;2024-01-06T14:47:57;2.15;;;0.98;;
17494;SDS011;8864;51.970;4.614;2024-01-06T14:50:26;3.22;;;1.05;;
17494;SDS011;8864;51.970;4.614;2024-01-06T14:52:53;2.03;;;1.10;;
17494;SDS011;8864;51.970;4.614;2024-01-06T14:55:20;1.77;;;1.00;;
17494;SDS011;8864;51.970;4.614;2024-01-06T14:57:47;1.17;;;0.77;;
17494;SDS011;8864;51.970;4.614;2024-01-06T15:00:18;3.10;;;0.90;;
17494;SDS011;8864;51.970;4.614;2024-01-06T15:02:45;1.80;;;0.93;;
17494;SDS011;8864;51.970;4.614;2024-01-06T15:05:12;2.38;;;1.00;;
17494;SDS011;8864;51.970;4.614;2024-01-06T15:07:40;2.13;;;1.00;;